Date,TemperatureHighF,TemperatureAvgF,TemperatureLowF,DewpointHighF,DewpointAvgF,DewpointLowF,HumidityHigh,HumidityAvg,HumidityLow,PressureMaxIn,PressureMinIn,WindSpeedMaxMPH,WindSpeedAvgMPH,GustSpeedMaxMPH,PrecipitationSumIn
2013-1-1,59.7,51.0,41.3,35.9,25.2,13.8,73,42,19,30.26,30.12,12,4,22,0.00
2013-1-2,67.4,57.1,47.5,36.0,18.9,13.0,59,24,14,30.16,30.06,17,5,23,0.00
2013-1-3,67.8,57.0,43.6,31.0,19.5,13.0,52,26,12,30.19,30.07,20,4,27,0.00
2013-1-4,69.5,54.2,41.6,43.0,22.2,11.0,66,33,12,30.27,30.17,9,2,11,0.00
2013-1-5,63.8,49.5,34.9,43.0,32.6,21.0,77,54,30,30.32,30.20,7,0,9,0.00
2013-1-6,56.2,48.2,40.0,48.0,43.3,38.9,97,84,59,30.22,30.05,19,2,19,0.02
2013-1-7,64.9,47.1,36.3,42.0,37.0,34.0,92,72,38,30.16,30.03,7,1,8,0.00
2013-1-8,75.0,53.7,40.1,51.0,38.7,28.2,89,60,25,30.12,30.05,5,1,10,0.00
2013-1-9,62.1,51.0,41.1,54.1,46.1,38.4,92,84,59,30.13,30.02,9,1,9,0.00
2013-1-10,58.4,50.3,37.3,49.0,35.7,21.0,93,62,24,30.14,29.95,10,2,18,0.00
2013-1-11,55.8,43.9,32.2,30.5,25.8,20.0,82,52,26,30.22,30.08,13,2,13,0.00
2013-1-12,57.3,44.3,32.9,30.7,25.7,17.0,76,51,21,30.19,30.10,13,3,13,0.00
2013-1-13,57.1,46.0,36.7,33.4,24.4,11.0,69,45,22,30.20,30.08,15,4,16,0.00
2013-1-14,54.4,48.3,42.8,10.0,4.7,2.0,26,17,13,30.37,30.18,14,5,19,0.00
2013-1-15,62.7,47.6,32.8,39.0,23.3,4.0,79,43,16,30.46,30.35,11,2,15,0.00
2013-1-16,72.4,60.2,39.2,29.0,24.4,17.0,66,29,15,30.37,30.15,14,5,23,0.00
2013-1-17,75.4,68.1,63.1,19.2,15.1,11.0,17,13,9,30.19,30.06,31,11,31,0.00
2013-1-18,75.4,65.9,58.9,17.6,15.1,13.0,18,14,10,30.16,30.06,21,7,21,0.00
2013-1-19,76.8,65.3,58.7,16.0,13.9,10.0,18,14,8,30.20,30.08,14,4,19,0.00
2013-1-20,78.1,64.7,53.3,20.0,13.3,6.0,27,15,7,30.14,30.02,17,4,21,0.00
2013-1-21,79.7,68.1,57.4,14.0,10.3,6.0,18,11,6,30.11,30.00,11,4,20,0.00
2013-1-22,79.7,63.7,53.7,38.4,20.3,9.0,45,21,7,30.10,30.00,14,4,14,0.00
2013-1-23,77.9,62.6,54.0,48.0,31.1,18.9,81,33,19,30.12,30.00,5,1,11,0.05
2013-1-24,63.0,57.1,52.1,58.0,54.2,49.0,98,90,75,30.19,30.09,11,3,15,0.92
2013-1-25,63.1,59.1,56.3,56.0,53.8,48.0,96,83,59,30.14,29.98,15,4,15,0.44
2013-1-26,68.1,58.8,53.3,59.5,55.4,50.0,99,89,69,30.01,29.90,9,1,10,0.10
2013-1-27,62.1,53.8,40.7,53.0,44.8,32.0,92,74,35,30.05,29.93,14,2,15,0.00
2013-1-28,60.0,47.9,36.0,37.3,33.7,30.0,87,61,38,30.21,30.05,14,2,14,0.00
2013-1-29,59.0,48.7,39.9,43.0,36.7,31.0,87,65,40,30.24,30.16,11,2,11,0.00
2013-1-30,67.7,51.6,38.7,47.2,41.7,36.0,91,71,41,30.35,30.23,10,2,10,0.00
2013-1-31,74.9,56.1,41.5,52.0,43.4,37.0,85,65,34,30.26,30.12,7,1,9,0.00
2013-2-1,78.5,58.1,46.4,50.0,44.1,38.0,91,62,27,30.19,30.12,8,1,14,0.00
2013-2-2,74.5,61.0,49.8,55.0,47.1,41.0,86,62,30,30.20,30.13,5,1,10,0.00
2013-2-3,73.5,58.5,45.8,53.0,47.9,44.0,96,71,37,30.15,30.02,6,1,8,0.00
2013-2-4,66.8,52.6,42.0,53.0,47.5,41.0,98,84,58,30.11,30.00,6,1,9,0.00
2013-2-5,57.6,51.4,44.2,51.0,48.6,43.0,98,90,79,30.11,30.01,5,1,7,0.01
2013-2-6,65.5,53.9,45.0,51.0,47.7,43.0,97,81,51,30.12,30.02,10,2,10,0.00
2013-2-7,60.0,50.4,40.6,49.0,45.0,39.0,96,82,63,30.16,29.99,8,1,13,0.00
2013-2-8,53.2,46.5,38.0,43.0,39.3,35.0,92,76,58,29.99,29.88,12,3,20,0.00
2013-2-9,59.9,47.3,36.9,43.0,36.4,32.0,88,69,38,30.11,29.96,11,3,11,0.00
2013-2-10,60.0,47.3,39.4,44.0,39.9,36.0,92,76,47,30.11,30.03,8,1,11,0.00
2013-2-11,65.7,49.9,37.2,42.0,34.6,18.4,92,63,18,30.26,30.09,17,4,17,0.00
2013-2-12,63.1,50.2,36.4,39.0,32.2,25.0,83,53,27,30.36,30.25,8,1,11,0.00
2013-2-13,64.5,50.6,36.0,49.0,38.5,31.0,87,65,38,30.29,30.16,5,1,12,0.00
2013-2-14,72.3,52.8,37.8,53.0,41.7,34.0,89,68,43,30.22,30.08,5,1,9,0.00
2013-2-15,80.5,67.0,49.4,37.0,27.6,21.0,55,25,11,30.21,30.12,17,5,24,0.00
2013-2-16,80.0,63.7,45.5,38.0,26.1,18.0,59,27,10,30.17,29.99,12,2,12,0.00
2013-2-17,64.8,51.9,39.1,51.0,38.6,27.0,93,62,40,30.04,29.94,8,1,14,0.00
2013-2-18,62.9,53.9,45.9,49.1,46.9,44.7,96,78,55,30.07,29.96,14,2,14,0.00
2013-2-19,57.0,50.4,43.8,47.1,44.2,37.1,93,80,58,29.99,29.74,11,2,18,0.11
2013-2-20,63.2,48.0,34.9,43.0,32.3,26.0,84,57,27,30.01,29.75,11,2,16,0.00
2013-2-21,61.7,49.7,38.7,44.0,35.8,29.0,83,60,38,30.11,30.00,9,2,13,0.00
2013-2-22,65.2,51.3,37.8,46.0,35.5,30.0,86,57,30,30.21,30.12,8,2,12,0.00
2013-2-23,64.9,52.5,37.4,51.0,40.5,28.0,85,65,39,30.17,29.92,8,2,12,0.00
2013-2-24,62.0,52.7,44.1,34.0,23.8,11.0,65,35,14,30.21,30.02,20,4,25,0.00
2013-2-25,66.7,51.5,38.9,43.0,29.2,17.0,82,47,18,30.24,30.08,7,1,11,0.00
2013-2-26,69.9,53.2,36.0,44.0,36.2,24.0,82,57,27,30.14,30.01,6,1,10,0.00
2013-2-27,76.0,60.4,51.3,29.0,19.7,14.0,42,22,11,30.30,30.13,19,4,19,0.00
2013-2-28,79.4,61.4,43.1,44.6,28.6,17.1,61,33,11,30.33,30.25,9,2,14,0.00
2013-3-1,84.9,66.9,47.9,36.5,27.5,18.7,53,26,9,30.31,30.17,15,3,20,0.00
2013-3-2,81.2,64.7,53.3,51.6,38.5,28.9,93,43,19,30.21,30.08,6,2,10,0.00
2013-3-3,70.3,57.6,49.1,53.6,50.1,42.1,93,77,43,30.13,29.99,9,1,15,0.00
2013-3-4,65.7,53.9,44.3,52.4,47.9,42.7,95,81,59,30.11,30.02,11,1,12,0.00
2013-3-5,64.2,53.1,44.6,52.0,47.9,43.0,94,83,62,30.14,30.05,7,1,10,0.00
2013-3-6,58.1,52.2,45.5,49.1,46.6,43.0,93,82,60,30.16,30.02,6,2,6,0.00
2013-3-7,61.4,54.0,48.2,50.2,47.3,42.1,96,80,49,30.03,29.84,6,1,12,0.32
2013-3-8,59.7,51.5,43.6,48.0,44.7,42.0,97,79,58,30.03,29.80,11,2,15,0.54
2013-3-9,65.3,52.7,39.9,48.5,43.7,38.7,96,74,46,30.22,30.04,13,2,13,0.01
2013-3-10,76.7,57.3,41.5,46.4,38.2,20.1,85,55,14,30.28,30.18,12,2,15,0.00
2013-3-11,71.0,55.9,40.2,46.8,41.3,35.2,90,62,34,30.19,30.06,7,1,11,0.00
2013-3-12,72.8,57.4,42.4,54.4,45.3,39.2,90,67,39,30.10,30.03,7,1,10,0.00
2013-3-13,75.4,58.5,43.4,55.0,48.6,42.0,95,73,43,30.12,30.04,10,1,10,0.00
2013-3-14,71.2,56.1,44.8,55.0,50.2,44.0,98,83,50,30.12,30.02,9,2,9,0.01
2013-3-15,66.2,55.4,50.5,56.0,52.0,49.0,98,89,68,30.05,29.95,6,1,12,0.00
2013-3-16,63.1,54.4,48.0,54.2,51.0,46.6,98,89,70,30.00,29.89,8,1,10,0.00
2013-3-17,66.9,53.1,44.6,55.6,49.3,43.6,98,88,61,30.03,29.93,6,1,12,0.01
2013-3-18,63.3,53.2,43.9,52.3,48.7,43.1,98,86,65,30.10,30.00,8,1,11,0.01
2013-3-19,67.5,55.6,45.6,56.0,50.4,44.0,96,84,62,30.13,30.05,7,1,12,0.00
2013-3-20,69.0,58.4,50.6,56.0,51.7,48.0,95,79,59,30.11,29.96,8,1,10,0.00
2013-3-21,70.5,58.1,46.3,55.0,50.6,45.0,96,78,55,29.97,29.81,8,1,11,0.00
2013-3-22,71.8,57.9,43.6,52.0,45.7,38.0,95,67,39,29.91,29.80,11,1,12,0.00
2013-3-23,68.1,53.8,40.0,54.0,42.8,29.0,93,69,35,30.02,29.91,11,1,15,0.00
2013-3-24,71.7,56.9,42.1,54.0,47.5,39.0,94,73,40,30.04,29.90,7,1,12,0.00
2013-3-25,68.4,56.4,42.2,56.0,48.8,39.0,93,77,57,29.99,29.91,8,1,10,0.00
2013-3-26,66.2,55.8,46.3,54.0,50.3,46.0,97,83,63,29.98,29.92,8,1,14,0.00
2013-3-27,67.6,57.0,46.4,54.0,50.3,45.0,96,80,58,30.06,29.94,9,2,14,0.00
2013-3-28,68.5,56.7,49.2,56.0,51.7,48.0,97,84,62,30.10,30.03,7,1,13,0.00
2013-3-29,69.1,56.7,46.6,57.4,52.4,46.0,97,86,64,30.13,30.05,11,2,11,0.00
2013-3-30,69.3,58.5,53.5,56.5,53.2,52.0,96,84,60,30.15,30.07,7,1,14,0.00
2013-3-31,66.5,58.9,53.2,59.5,54.2,51.4,95,85,66,30.13,30.07,8,2,12,0.03
2013-4-1,65.9,57.9,52.5,54.8,52.5,50.0,95,83,65,30.18,30.09,16,2,16,0.00
2013-4-2,69.1,57.2,48.4,55.0,51.3,47.0,96,82,58,30.11,30.01,8,1,12,0.00
2013-4-3,72.2,58.6,49.4,57.0,53.3,48.0,97,84,55,30.10,30.01,8,2,12,0.00
2013-4-4,69.2,58.4,54.4,57.0,54.2,52.0,93,86,61,30.13,30.03,9,2,13,0.00
2013-4-5,70.1,60.2,52.8,58.0,54.6,51.0,92,82,63,30.11,30.00,5,1,10,0.00
2013-4-6,71.1,59.1,47.7,57.0,52.6,47.0,96,80,59,30.11,29.95,8,1,11,0.00
2013-4-7,74.6,60.8,48.1,58.0,52.2,46.7,95,76,47,29.98,29.79,11,2,11,0.00
2013-4-8,71.1,58.7,49.1,50.7,42.0,30.3,94,59,25,29.85,29.66,20,4,27,0.00
2013-4-9,72.0,58.8,44.0,48.0,39.6,28.4,82,54,20,30.00,29.85,11,2,16,0.00
2013-4-10,81.4,62.4,44.3,49.6,36.7,21.0,78,46,11,30.11,29.98,13,2,13,0.00
2013-4-11,70.0,57.5,45.4,51.5,46.6,39.6,90,69,44,29.99,29.78,10,2,16,0.00
2013-4-12,68.5,56.6,49.4,55.0,51.1,47.0,96,82,61,29.89,29.81,6,1,12,0.00
2013-4-13,59.6,55.7,51.9,54.0,52.4,50.0,95,89,80,29.93,29.85,5,1,9,0.00
2013-4-14,62.1,56.8,53.5,54.0,52.4,50.0,96,86,69,29.90,29.84,7,1,9,0.01
2013-4-15,65.5,57.1,48.2,53.0,49.3,43.0,90,76,60,29.91,29.84,6,2,13,0.00
2013-4-16,64.2,54.3,42.5,46.0,42.9,37.0,93,68,38,30.03,29.88,9,2,16,0.00
2013-4-17,68.8,56.3,41.3,46.0,38.6,24.0,91,58,21,30.14,30.04,13,2,18,0.00
2013-4-18,78.7,63.7,50.4,40.0,25.2,16.0,59,27,10,30.22,30.14,18,5,20,0.00
2013-4-19,81.3,64.5,47.0,50.0,38.3,22.0,83,43,13,30.17,29.98,7,1,12,0.00
2013-4-20,81.8,64.0,47.5,54.1,47.4,37.0,86,58,30,30.00,29.89,14,2,14,0.00
2013-4-21,76.9,62.1,48.4,56.7,51.5,44.3,92,71,40,30.01,29.94,13,2,14,0.00
2013-4-22,69.1,60.6,55.6,56.2,53.8,52.0,91,79,61,30.01,29.91,8,1,12,0.00
2013-4-23,69.6,60.9,54.3,54.0,52.4,50.0,92,74,58,29.98,29.89,7,1,13,0.00
2013-4-24,60.5,56.8,54.4,55.0,53.2,51.0,94,88,81,30.01,29.91,5,0,8,0.00
2013-4-25,71.6,60.9,51.0,53.0,50.0,47.0,93,70,43,30.14,29.98,10,2,13,0.00
2013-4-26,72.7,60.8,51.1,55.0,50.5,46.0,91,71,48,30.16,30.11,8,2,12,0.00
2013-4-27,72.8,60.6,48.1,58.0,52.6,47.0,95,77,54,30.15,30.00,8,1,13,0.00
2013-4-28,71.2,59.8,53.2,58.0,54.5,52.0,96,84,63,30.02,29.87,7,1,10,0.00
2013-4-29,67.8,59.9,53.3,58.0,55.1,52.0,96,85,69,29.91,29.80,8,2,13,0.00
2013-4-30,67.1,60.5,56.6,56.0,54.8,54.0,93,82,65,29.90,29.83,14,2,14,0.00
2013-5-1,73.1,64.4,55.0,58.0,55.1,53.0,92,73,54,30.10,29.90,8,1,14,0.00
2013-5-2,92.5,67.3,48.7,53.0,36.0,-1.0,95,53,3,30.13,30.02,23,4,34,6.61
2013-5-3,92.7,71.8,49.6,53.0,37.6,5.0,77,36,4,30.03,29.76,8,1,13,0.00
2013-5-4,75.6,62.3,50.5,57.0,52.5,43.0,88,72,47,29.84,29.73,13,3,17,0.00
2013-5-5,64.2,59.3,57.1,53.0,51.3,49.0,83,75,58,29.93,29.82,6,1,12,0.00
2013-5-6,70.9,61.4,55.6,57.0,53.6,48.0,95,78,51,30.02,29.89,6,1,11,0.09
2013-5-7,71.8,62.7,56.6,55.0,52.7,47.0,89,71,43,30.07,29.99,7,2,13,0.00
2013-5-8,70.7,61.3,53.7,56.0,52.3,48.0,96,74,47,30.11,30.07,9,1,13,0.00
2013-5-9,70.9,61.7,51.5,56.0,52.5,48.0,90,73,53,30.10,30.03,10,1,11,0.00
2013-5-10,77.4,63.6,53.2,60.0,55.6,51.0,93,77,52,30.11,30.01,9,2,13,0.00
2013-5-11,77.7,65.1,55.4,62.1,58.1,54.0,97,79,57,30.08,30.01,10,2,14,0.00
2013-5-12,84.4,69.5,54.1,64.0,58.4,53.0,96,71,43,30.06,29.91,7,1,16,0.00
2013-5-13,82.8,68.8,55.7,62.0,58.1,53.0,93,71,46,29.98,29.91,7,1,11,0.00
2013-5-14,72.7,61.4,53.4,58.0,54.3,51.0,95,79,59,30.00,29.92,7,1,14,0.00
2013-5-15,70.3,60.8,50.0,57.0,53.1,48.0,93,77,59,30.05,29.95,8,2,14,0.00
2013-5-16,70.0,59.9,51.5,57.0,53.7,50.0,95,80,63,30.00,29.91,8,1,14,0.00
2013-5-17,72.4,61.9,52.9,58.0,53.8,50.0,94,76,58,29.99,29.92,7,1,13,0.00
2013-5-18,72.8,62.2,49.9,57.0,52.2,47.0,91,72,47,30.05,29.97,10,2,14,0.00
2013-5-19,76.3,65.6,50.5,58.5,54.7,48.0,91,69,52,30.00,29.86,8,1,14,0.00
2013-5-20,77.7,66.6,52.6,61.0,55.9,50.0,93,70,50,29.96,29.87,14,2,14,0.00
2013-5-21,75.6,64.8,54.8,62.1,57.1,52.0,92,77,62,29.95,29.83,14,2,14,0.00
2013-5-22,73.0,62.6,54.0,57.0,52.5,48.0,88,71,51,29.86,29.78,10,2,15,0.00
2013-5-23,70.6,60.8,51.4,54.0,50.2,47.0,87,70,48,29.95,29.83,10,2,16,0.00
2013-5-24,71.1,60.7,48.2,57.0,50.5,45.0,90,70,54,30.00,29.91,12,2,12,0.00
2013-5-25,71.1,60.5,48.4,57.0,51.5,46.0,92,73,53,30.03,29.97,10,2,14,0.00
2013-5-26,71.8,61.7,49.9,57.0,53.0,47.0,92,75,56,30.05,29.99,11,1,12,0.00
2013-5-27,74.2,63.1,52.1,57.0,54.3,49.0,93,75,53,30.01,29.86,7,1,11,0.00
2013-5-28,79.2,66.2,53.7,59.0,56.0,51.0,93,72,46,29.89,29.74,10,1,14,0.00
2013-5-29,80.6,66.6,54.4,60.0,55.7,52.0,91,70,43,29.82,29.72,6,1,10,0.00
2013-5-30,76.5,65.3,52.2,61.0,55.9,50.0,93,73,55,29.87,29.77,7,1,12,0.00
2013-5-31,75.7,66.0,57.0,62.0,58.0,53.0,93,76,58,29.92,29.82,6,1,12,0.00
2013-6-1,78.3,66.5,57.4,63.0,59.1,54.5,93,79,58,29.86,29.74,11,2,11,0.00
2013-6-2,72.6,63.3,59.4,62.7,58.8,56.6,93,85,69,29.83,29.77,11,2,12,0.00
2013-6-3,74.6,65.3,59.3,60.8,58.3,56.6,94,79,60,29.91,29.80,8,1,13,0.00
2013-6-4,73.3,63.8,56.6,60.0,57.0,53.0,91,79,62,29.98,29.89,9,1,12,0.00
2013-6-5,71.3,61.0,51.9,58.0,54.7,50.0,93,80,61,30.02,29.94,8,1,15,0.00
2013-6-6,71.7,61.5,54.0,60.0,55.9,52.0,94,82,64,29.96,29.89,6,1,16,0.00
2013-6-7,72.5,63.1,58.8,61.0,57.4,55.0,90,82,64,29.92,29.80,15,2,15,0.00
2013-6-8,69.6,63.4,60.3,60.0,58.2,57.0,90,83,71,29.91,29.79,8,1,12,0.00
2013-6-9,72.3,63.5,59.2,62.0,58.2,56.0,95,84,70,29.93,29.88,9,1,13,0.00
2013-6-10,75.6,66.5,59.7,58.0,56.2,52.0,88,71,53,29.97,29.90,8,1,12,0.00
2013-6-11,79.6,67.0,56.5,62.0,58.4,54.0,93,75,53,29.95,29.89,7,2,12,0.00
2013-6-12,72.7,63.3,59.5,61.0,58.3,57.0,92,84,66,30.04,29.93,7,1,10,0.00
2013-6-13,73.5,65.4,58.0,61.0,58.3,55.0,90,78,64,30.02,29.90,8,1,11,0.00
2013-6-14,75.0,64.3,52.3,61.0,57.4,50.0,95,79,62,29.93,29.85,10,2,16,0.00
2013-6-15,73.0,64.5,59.1,60.0,57.7,56.0,92,80,59,29.98,29.89,9,2,12,0.00
2013-6-16,75.5,64.9,57.0,60.0,57.3,55.0,91,77,58,30.05,29.95,7,1,12,0.00
2013-6-17,76.4,63.7,53.4,61.5,57.3,51.6,97,81,56,30.00,29.88,15,2,15,0.00
2013-6-18,75.8,65.0,54.2,60.0,56.3,52.0,94,75,55,29.94,29.84,10,1,12,0.00
2013-6-19,83.7,66.9,53.6,59.0,53.8,47.0,91,66,29,29.89,29.78,9,1,12,0.00
2013-6-20,79.2,67.5,52.8,60.4,54.7,49.0,89,66,44,29.86,29.80,12,2,12,0.00
2013-6-21,77.5,69.7,53.4,61.0,56.5,50.0,89,64,51,29.91,29.84,7,2,14,0.00
2013-6-22,76.1,65.4,54.9,61.2,56.8,51.4,91,75,55,29.92,29.83,13,3,13,0.00
2013-6-23,70.1,62.7,54.3,60.0,56.5,52.0,93,81,66,29.89,29.81,7,1,11,0.00
2013-6-24,73.8,64.2,55.1,61.2,58.1,53.0,95,81,63,29.95,29.83,13,2,13,0.00
2013-6-25,73.9,67.3,60.4,63.0,60.2,58.0,93,78,65,30.00,29.91,7,1,12,0.00
2013-6-26,81.4,70.5,58.7,65.0,61.2,56.9,95,74,54,29.98,29.92,12,2,12,0.00
2013-6-27,83.8,72.4,62.3,67.0,63.1,59.0,91,74,55,30.02,29.96,7,1,12,0.00
2013-6-28,85.2,72.6,61.0,67.0,62.5,59.0,94,72,49,29.98,29.87,9,1,11,0.00
2013-6-29,85.1,77.2,70.0,65.0,63.9,63.0,77,64,50,29.75,29.73,1,0,5,0.00
2013-6-30,88.4,81.6,67.5,67.0,64.7,61.0,80,57,44,29.77,29.73,10,3,14,0.00
2013-7-1,83.6,73.8,64.7,67.0,65.5,63.0,96,76,58,29.88,29.83,7,2,13,0.00
2013-7-2,80.7,70.8,62.7,66.0,64.0,61.0,96,79,60,30.01,29.90,9,2,15,0.00
2013-7-3,77.9,67.8,63.0,66.0,62.5,61.0,94,84,64,29.93,29.82,6,1,10,0.00
2013-7-4,76.6,68.3,63.0,65.0,62.1,61.0,92,81,63,29.84,29.75,7,1,12,0.00
2013-7-5,78.4,68.4,63.6,65.0,62.1,60.5,90,81,61,29.85,29.77,13,3,13,0.00
2013-7-6,76.5,67.3,63.4,65.1,61.9,60.0,89,83,67,29.84,29.76,9,1,11,0.00
2013-7-7,77.8,67.5,59.8,64.0,60.9,57.0,93,80,61,29.87,29.78,12,2,12,0.00
2013-7-8,79.7,65.8,58.1,64.0,59.6,56.0,95,82,55,29.94,29.86,7,1,12,0.00
2013-7-9,84.2,68.3,57.0,65.0,59.6,56.0,96,76,45,29.99,29.92,7,2,13,0.00
2013-7-10,81.5,68.4,59.2,65.0,61.4,58.0,95,79,55,29.98,29.89,9,1,10,0.00
2013-7-11,78.5,69.3,63.5,67.0,63.5,61.0,91,82,65,29.97,29.89,6,1,10,0.00
2013-7-12,77.4,66.5,59.3,66.0,61.3,58.0,96,84,62,29.94,29.88,8,2,14,0.00
2013-7-13,77.9,66.8,60.1,64.0,60.3,57.0,96,81,60,29.97,29.87,9,1,12,0.00
2013-7-14,79.7,68.2,55.4,64.0,59.1,54.0,95,74,50,29.94,29.81,6,1,13,0.00
2013-7-15,78.0,66.1,56.0,60.0,57.0,54.0,93,75,52,29.88,29.82,8,2,13,0.00
2013-7-16,78.5,65.6,54.7,61.0,56.4,52.7,96,75,46,29.98,29.88,14,3,14,0.00
2013-7-17,81.2,67.0,53.1,60.0,56.3,51.0,93,71,44,30.03,29.97,8,1,13,0.00
2013-7-18,77.3,66.2,55.1,61.0,57.7,53.0,95,76,54,29.99,29.87,9,2,12,0.00
2013-7-19,77.4,65.2,54.8,61.0,56.9,53.0,94,76,52,29.92,29.83,8,2,14,0.00
2013-7-20,77.6,65.6,55.4,64.2,59.3,53.9,95,81,63,29.89,29.78,13,2,13,0.00
2013-7-21,72.8,65.8,62.3,64.0,61.6,59.0,93,86,71,29.93,29.81,6,1,9,0.00
2013-7-22,78.2,67.8,61.9,66.0,62.2,60.0,97,83,63,29.99,29.91,6,1,11,0.12
2013-7-23,78.0,67.2,62.0,64.0,60.7,59.0,93,81,59,30.04,29.95,8,1,12,0.00
2013-7-24,74.1,65.2,60.4,62.0,59.7,58.0,94,83,64,29.99,29.91,13,2,13,0.00
2013-7-25,74.2,65.1,60.2,63.0,59.4,57.0,92,82,64,30.02,29.93,9,2,14,0.00
2013-7-26,75.9,65.5,59.3,64.0,59.4,57.0,92,81,62,30.11,30.00,6,1,11,0.00
2013-7-27,74.8,65.0,58.9,61.0,58.6,57.0,94,81,62,30.02,29.89,9,2,13,0.00
2013-7-28,72.1,63.6,58.3,62.0,58.5,56.0,93,84,69,29.94,29.89,8,1,11,0.00
2013-7-29,73.4,65.4,58.7,62.0,58.3,56.0,94,79,61,30.04,29.92,8,1,11,0.00
2013-7-30,73.3,62.8,56.2,61.0,57.3,54.6,95,83,63,30.14,30.04,10,1,12,0.00
2013-7-31,72.3,62.2,55.1,60.0,56.8,54.0,95,83,63,30.12,30.02,7,1,11,0.00
2013-8-1,73.3,64.5,58.6,60.0,57.4,55.0,89,79,61,30.04,29.91,11,2,11,0.00
2013-8-2,76.0,64.0,52.8,62.0,57.4,51.0,95,80,61,29.97,29.92,13,2,13,0.00
2013-8-3,73.6,63.6,56.1,62.0,58.0,54.0,95,83,64,30.01,29.95,9,1,14,0.00
2013-8-4,72.4,62.9,57.1,61.0,57.6,55.0,95,84,64,30.04,29.95,9,1,11,0.00
2013-8-5,74.9,64.2,56.5,61.0,57.5,55.0,95,81,59,30.02,29.93,8,1,13,0.00
2013-8-6,74.4,63.3,56.0,60.0,57.3,54.0,94,82,59,30.06,29.97,10,2,13,0.00
2013-8-7,73.0,63.7,56.6,60.0,57.4,55.0,95,81,60,30.09,29.99,8,1,12,0.00
2013-8-8,74.5,64.5,56.3,61.0,57.9,55.0,96,80,60,30.01,29.92,9,2,13,0.00
2013-8-9,72.7,63.7,56.8,61.0,57.5,54.0,94,81,63,29.97,29.92,7,2,14,0.00
2013-8-10,73.8,63.9,55.2,61.3,57.7,53.4,96,81,62,30.03,29.97,12,2,12,0.00
2013-8-11,75.7,64.3,56.8,61.9,58.5,55.1,95,83,61,30.01,29.91,13,2,13,0.00
2013-8-12,75.5,64.6,59.2,63.0,59.2,57.0,93,83,63,29.98,29.91,5,1,12,0.00
2013-8-13,77.3,65.2,58.3,64.0,59.7,56.0,94,83,62,29.99,29.89,8,1,12,0.00
2013-8-14,78.3,65.4,58.2,65.0,60.3,57.0,97,85,61,29.95,29.84,11,2,11,0.00
2013-8-15,79.7,65.9,58.4,66.0,61.0,57.0,97,85,62,29.95,29.89,5,1,12,0.00
2013-8-16,78.9,68.2,60.9,66.0,61.6,59.0,96,81,60,29.97,29.91,12,2,12,0.00
2013-8-17,78.2,67.2,60.0,63.2,60.4,58.0,97,80,58,29.96,29.82,8,1,12,0.00
2013-8-18,79.9,65.9,57.3,64.0,59.5,56.0,96,81,56,29.91,29.82,7,1,13,0.00
2013-8-19,76.0,65.6,59.3,65.0,60.5,57.0,95,84,65,29.96,29.87,8,1,13,0.00
2013-8-20,78.0,65.1,60.5,63.0,59.5,57.0,94,83,59,29.96,29.87,9,1,13,0.00
2013-8-21,76.7,65.7,54.7,62.0,58.1,53.0,96,78,58,29.94,29.86,10,1,12,0.00
2013-8-22,83.9,68.8,55.3,62.0,58.2,54.0,97,72,42,29.93,29.83,6,1,15,0.00
2013-8-23,80.8,67.5,52.9,60.0,57.1,51.0,92,72,46,29.87,29.75,9,1,11,0.00
2013-8-24,78.6,65.2,52.7,63.0,58.0,52.0,97,80,54,29.87,29.78,7,1,11,0.00
2013-8-25,80.7,66.5,54.8,62.0,58.5,54.0,98,78,48,29.93,29.84,7,1,10,0.00
2013-8-26,85.2,69.3,51.0,61.0,57.1,50.0,96,69,35,29.93,29.84,7,1,13,0.00
2013-8-27,82.1,70.7,63.0,64.0,60.9,60.0,90,73,49,29.85,29.78,7,1,12,0.00
2013-8-28,83.9,71.5,60.8,64.0,60.4,58.0,92,70,42,29.89,29.78,6,1,11,0.00
2013-8-29,88.6,73.5,60.0,64.0,60.3,58.0,92,67,39,29.93,29.87,6,1,10,0.00
2013-8-30,91.4,76.4,63.5,66.0,62.2,60.0,89,64,42,29.96,29.90,9,2,16,0.00
2013-8-31,89.4,79.0,69.6,70.0,65.3,62.0,84,64,48,29.96,29.87,6,1,14,0.00
2013-9-1,84.5,74.7,67.4,70.0,65.5,61.0,90,74,60,29.93,29.86,11,1,12,0.00
2013-9-2,84.4,73.0,63.6,69.3,65.6,61.9,96,79,59,29.92,29.81,9,1,13,0.00
2013-9-3,87.3,75.8,64.1,68.7,65.2,61.8,93,71,51,29.90,29.82,8,1,12,0.00
2013-9-4,85.9,73.6,62.8,67.0,62.8,60.0,92,71,49,29.92,29.84,8,1,11,0.00
2013-9-5,88.1,73.3,60.7,66.0,62.2,59.0,94,71,44,29.90,29.82,7,1,11,0.00
2013-9-6,89.6,73.2,59.6,65.0,61.2,58.0,94,69,41,29.88,29.79,6,1,10,0.00
2013-9-7,85.2,69.8,58.8,64.0,60.2,56.0,96,74,44,29.87,29.81,9,1,11,0.00
2013-9-8,77.8,67.2,59.6,63.0,59.8,57.0,94,78,55,29.86,29.76,8,1,11,0.00
2013-9-9,72.0,63.3,58.4,62.0,58.9,57.0,96,86,68,29.83,29.76,6,1,11,0.00
2013-9-10,75.1,66.1,59.4,61.0,59.3,57.0,92,80,61,29.94,29.82,10,1,11,0.00
2013-9-11,76.2,65.5,57.6,62.0,59.0,56.0,95,81,61,30.01,29.93,8,1,11,0.00
2013-9-12,81.5,67.4,55.1,63.0,58.7,54.0,95,76,50,29.94,29.83,7,1,11,0.00
2013-9-13,81.8,68.2,54.8,63.0,58.6,53.0,95,74,49,29.83,29.67,8,1,11,0.00
2013-9-14,82.7,69.3,56.3,63.0,59.1,55.0,95,73,48,29.73,29.65,8,1,11,0.00
2013-9-15,81.8,69.0,57.1,65.0,59.6,55.0,95,74,53,29.77,29.68,6,1,11,0.00
2013-9-16,82.3,66.9,56.4,63.0,59.2,55.0,96,79,50,29.84,29.75,8,1,10,0.00
2013-9-17,75.6,63.6,54.0,63.0,57.7,53.0,97,83,56,29.83,29.74,7,1,11,0.00
2013-9-18,75.1,64.2,54.8,62.0,58.4,54.0,96,83,62,29.83,29.75,7,1,10,0.00
2013-9-19,76.0,64.6,54.1,63.0,59.2,53.0,96,84,64,29.84,29.76,6,1,10,0.01
2013-9-20,70.9,65.6,63.2,62.7,60.4,59.0,88,83,74,29.90,29.82,11,2,11,0.00
2013-9-21,75.4,65.2,58.4,62.0,59.4,56.0,92,82,57,29.93,29.80,9,1,17,0.00
2013-9-22,78.9,65.6,54.3,60.0,55.3,47.0,96,73,35,29.86,29.77,8,1,12,0.00
2013-9-23,86.8,68.4,50.3,56.0,50.3,45.0,89,57,26,29.88,29.82,8,1,9,0.00
2013-9-24,84.0,68.6,53.0,59.0,51.8,44.0,89,58,30,29.94,29.83,8,1,10,0.00
2013-9-25,75.1,63.8,53.2,61.0,54.4,50.0,90,73,47,29.84,29.69,11,1,13,0.00
2013-9-26,74.4,62.9,55.2,55.0,51.4,44.0,88,69,34,29.90,29.72,9,1,18,0.00
2013-9-27,83.8,66.0,47.7,49.0,38.0,28.0,85,43,15,30.00,29.90,13,2,15,0.00
2013-9-28,83.4,67.7,49.6,47.7,38.8,31.6,67,38,17,30.04,29.96,13,2,13,0.00
2013-9-29,81.1,65.8,49.5,54.0,45.1,34.0,80,50,24,30.07,29.97,6,1,12,0.00
2013-9-30,81.6,65.0,48.8,59.0,50.8,42.0,92,64,31,29.99,29.84,7,1,10,0.00
2013-10-1,77.4,64.0,50.8,62.0,56.0,49.0,95,77,55,29.94,29.87,7,1,12,0.00
2013-10-2,75.7,63.0,54.1,61.0,56.7,52.0,95,81,56,29.98,29.89,8,1,12,0.00
2013-10-3,74.0,63.5,56.5,61.0,57.5,54.0,95,82,62,29.93,29.83,9,1,12,0.00
2013-10-4,84.2,70.3,49.7,53.0,29.2,15.0,97,36,8,30.04,29.88,22,6,32,0.00
2013-10-5,88.4,76.8,69.1,29.0,22.3,16.0,22,14,7,30.10,30.02,15,5,22,0.00
2013-10-6,93.0,75.9,62.6,50.0,30.2,19.0,58,22,7,30.08,29.96,9,2,14,0.00
2013-10-7,79.2,63.4,51.6,57.0,46.5,30.0,91,57,30,29.99,29.91,6,0,10,0.00
2013-10-8,71.6,60.4,48.2,58.0,53.4,43.0,96,79,62,29.94,29.82,11,1,14,0.00
2013-10-9,63.3,58.1,49.6,54.0,50.7,46.0,89,77,56,29.83,29.70,13,2,19,0.00
2013-10-10,69.8,57.6,47.4,53.0,48.8,44.0,90,74,52,30.03,29.81,7,2,11,0.00
2013-10-11,72.0,59.1,47.4,56.0,51.1,45.0,93,77,49,30.06,29.96,9,1,12,0.00
2013-10-12,74.2,59.3,47.9,58.0,51.9,46.0,95,78,54,29.99,29.90,9,1,13,0.00
2013-10-13,69.5,58.6,49.3,56.0,52.5,48.0,95,81,58,30.03,29.95,6,1,10,0.00
2013-10-14,83.5,63.2,48.6,57.0,50.9,35.0,94,70,18,30.04,29.92,9,1,14,0.00
2013-10-15,86.1,71.4,56.9,52.0,38.4,29.0,72,33,13,29.96,29.88,12,3,15,0.00
2013-10-16,86.4,71.5,53.6,43.0,32.3,20.0,56,26,9,30.07,29.96,12,3,16,0.00
2013-10-17,81.3,63.7,48.2,57.0,42.5,31.0,90,51,21,30.04,29.93,6,1,10,0.00
2013-10-18,77.8,62.0,47.7,61.0,49.3,39.0,83,65,36,30.01,29.94,7,1,11,0.00
2013-10-19,79.6,62.4,47.5,59.0,48.9,37.0,92,64,35,30.04,29.96,5,1,11,0.00
2013-10-20,72.7,58.4,45.0,60.6,52.8,42.0,94,82,63,30.00,29.91,11,2,11,0.00
2013-10-21,71.4,59.8,50.8,59.1,54.9,49.7,97,85,64,30.00,29.92,7,1,9,0.00
2013-10-22,70.2,58.5,50.2,58.0,54.3,49.0,97,87,63,30.02,29.92,4,1,8,0.00
2013-10-23,68.9,59.7,53.9,57.0,55.0,52.0,95,85,66,29.99,29.91,8,1,8,0.00
2013-10-24,70.1,61.8,58.5,57.0,55.0,54.0,86,79,62,30.06,29.96,6,1,11,0.00
2013-10-25,71.5,59.8,53.1,58.0,55.1,52.0,95,85,62,30.14,30.02,4,1,8,0.00
2013-10-26,74.2,59.4,46.1,60.0,54.0,45.0,98,84,57,30.10,29.98,7,1,9,0.01
2013-10-27,71.1,57.4,44.2,60.0,52.8,43.0,98,85,64,29.99,29.82,7,1,11,0.00
2013-10-28,65.7,58.9,54.1,54.0,50.1,45.0,87,73,49,29.94,29.80,11,3,17,0.00
2013-10-29,66.1,56.6,47.1,52.0,49.3,45.0,94,78,55,30.01,29.93,8,1,14,0.00
2013-10-30,71.2,58.1,49.8,55.0,48.8,43.0,92,74,39,30.08,30.00,6,2,11,0.00
2013-10-31,74.8,58.8,43.6,49.0,45.0,40.0,90,64,35,30.09,30.01,7,1,9,0.00
2013-11-1,82.7,62.2,43.6,55.0,44.2,32.0,85,58,16,30.11,29.96,6,1,9,0.00
2013-11-2,79.4,64.8,50.5,57.0,44.2,32.0,91,52,23,29.98,29.88,7,2,13,0.00
2013-11-3,69.7,57.6,46.7,57.0,50.7,43.0,92,79,60,29.93,29.83,5,1,10,0.00
2013-11-4,70.8,59.3,52.3,56.0,52.5,49.0,93,79,56,29.96,29.80,6,1,10,0.00
2013-11-5,74.7,64.0,50.1,49.0,24.5,13.0,86,27,11,30.16,29.97,19,5,22,0.00
2013-11-6,82.2,66.9,52.9,40.0,23.4,15.0,55,22,8,30.20,30.12,13,3,19,0.00
2013-11-7,84.4,68.1,51.2,45.6,30.6,20.7,57,27,12,30.12,30.00,10,3,10,0.00
2013-11-8,75.9,59.0,45.0,58.0,43.3,29.0,96,60,23,30.03,29.93,8,1,11,0.00
2013-11-9,70.5,56.5,44.7,57.0,48.9,40.0,94,77,53,30.08,30.00,6,1,9,0.00
2013-11-10,81.1,58.3,45.5,54.0,47.8,31.0,92,72,16,30.12,30.05,8,2,13,0.00
2013-11-11,75.2,58.1,44.0,53.0,45.9,38.0,88,67,32,30.14,30.05,5,1,10,0.00
2013-11-12,75.7,60.3,50.5,57.0,50.6,45.0,88,72,43,30.18,30.08,7,1,11,0.00
2013-11-13,92.2,69.2,48.6,47.0,39.2,28.0,85,40,10,30.08,29.91,8,1,10,0.00
2013-11-14,87.7,65.5,51.5,56.0,46.3,33.0,93,55,14,29.93,29.76,6,1,8,0.00
2013-11-15,70.4,57.9,49.5,57.0,52.4,48.0,97,83,59,29.77,29.68,9,1,10,0.00
2013-11-16,67.1,58.5,51.3,57.0,52.6,48.0,93,81,65,29.95,29.75,9,1,14,0.00
2013-11-17,69.9,58.0,50.2,54.0,51.1,48.0,93,79,53,30.10,29.94,6,1,9,0.00
2013-11-18,67.1,54.9,46.0,55.0,50.0,44.0,95,84,63,30.18,30.07,7,1,10,0.00
2013-11-19,66.7,57.3,49.6,54.0,51.7,48.0,96,82,62,30.11,29.96,5,1,9,0.00
2013-11-20,69.1,59.2,51.8,57.0,53.8,49.0,97,83,61,29.98,29.87,4,1,9,0.23
2013-11-21,65.6,58.4,55.6,60.0,54.9,43.0,99,88,61,29.90,29.83,11,1,15,0.27
2013-11-22,60.9,56.4,54.1,43.0,39.7,38.0,61,54,47,29.99,29.86,20,9,25,0.00
2013-11-23,63.8,57.0,53.5,41.0,40.0,39.0,62,54,41,30.11,29.98,16,5,22,0.00
2013-11-24,69.1,57.5,46.2,48.0,43.2,38.0,88,61,32,30.21,30.10,11,2,15,0.00
2013-11-25,71.8,55.8,41.1,52.0,43.9,38.0,90,68,36,30.24,30.16,6,1,10,0.00
2013-11-26,74.3,58.9,43.2,55.0,45.1,36.0,87,63,25,30.19,30.04,7,1,10,0.00
2013-11-27,76.7,62.3,50.6,53.0,43.0,36.0,94,54,23,30.04,29.86,8,2,12,0.00
2013-11-28,69.4,57.6,45.6,53.0,44.8,39.0,88,65,33,30.05,29.89,7,1,11,0.00
2013-11-29,69.8,60.3,52.2,52.0,48.5,44.0,88,67,44,30.19,30.05,13,2,14,0.11
2013-11-30,76.6,58.7,44.6,50.0,44.6,37.0,91,64,26,30.20,30.08,7,1,9,0.00
2013-12-1,81.2,64.9,50.9,41.0,35.5,28.0,59,37,14,30.23,30.11,17,2,17,0.00
2013-12-2,73.2,59.8,47.2,48.0,39.2,32.0,76,49,30,30.12,29.91,4,1,5,0.00
2013-12-3,65.3,53.6,42.0,54.0,44.8,36.0,86,72,58,29.90,29.73,10,1,12,0.00
2013-12-4,61.8,49.0,36.0,44.0,31.0,19.5,93,56,20,29.98,29.78,10,2,10,0.00
2013-12-5,60.3,48.1,40.7,36.0,29.3,23.0,68,50,30,30.11,29.96,7,2,13,0.00
2013-12-6,60.8,48.5,38.7,41.2,35.2,27.0,84,61,46,30.19,30.10,9,3,9,0.00
2013-12-7,57.7,45.7,37.0,49.0,37.9,29.0,94,76,47,30.14,29.98,13,2,22,0.26
2013-12-8,57.2,43.6,31.7,36.0,28.9,20.0,81,59,34,30.23,30.12,6,1,12,0.00
2013-12-9,56.1,50.0,43.9,20.2,6.9,-5.0,38,19,10,30.33,30.22,34,13,34,0.00
2013-12-10,66.1,54.4,48.3,22.0,6.2,-2.0,34,15,9,30.29,30.11,14,5,22,0.00
2013-12-11,70.5,59.0,49.7,18.0,13.7,11.0,23,17,11,30.18,30.11,11,4,17,0.00
2013-12-12,67.0,56.7,45.8,48.0,32.4,17.0,82,44,18,30.22,30.14,6,2,9,0.00
2013-12-13,64.4,49.7,39.4,50.0,40.6,33.0,92,72,44,30.24,30.14,7,1,9,0.00
2013-12-14,72.8,64.7,42.7,42.0,24.0,21.0,90,24,14,30.30,30.20,20,6,26,0.00
2013-12-15,80.8,69.8,63.2,24.0,21.7,19.0,20,16,10,30.28,30.09,20,7,22,0.00
2013-12-16,85.8,69.9,57.0,42.0,29.9,22.0,55,25,10,30.12,30.04,11,2,13,0.00
2013-12-17,80.0,69.1,60.3,51.0,37.0,25.0,67,34,19,30.12,29.99,5,2,10,0.00
2013-12-18,67.2,58.9,53.2,55.0,50.2,37.0,92,75,34,29.99,29.86,6,1,13,0.00
2013-12-19,58.5,52.3,42.4,50.0,45.1,39.0,90,77,55,29.85,29.71,9,1,15,0.00
2013-12-20,67.0,51.2,38.9,44.0,38.8,32.0,90,67,27,29.95,29.82,8,1,12,0.00
2013-12-21,63.8,51.9,43.5,50.0,42.9,35.0,91,73,47,30.11,29.93,7,1,10,0.00
2013-12-22,66.2,52.3,44.1,52.0,46.4,42.0,95,81,58,30.28,30.10,5,1,8,0.00
2013-12-23,77.7,55.6,40.1,48.0,40.2,34.0,95,63,22,30.32,30.21,9,2,18,0.00
2013-12-24,81.9,63.3,45.3,52.0,38.4,31.0,74,45,16,30.21,30.09,11,2,18,0.00
2013-12-25,77.7,71.2,67.1,33.0,24.9,13.0,27,18,10,30.21,30.13,24,8,29,0.00
2013-12-26,79.9,70.6,58.2,20.0,12.2,5.8,23,11,6,30.17,30.06,28,1,28,0.00
2013-12-27,83.7,65.0,50.9,39.0,22.8,7.0,47,23,6,30.15,30.03,11,1,13,0.00
2013-12-28,71.1,56.6,44.4,51.0,37.3,21.0,92,53,22,30.03,29.93,6,0,11,0.00
2013-12-29,74.4,61.5,38.9,39.0,19.7,9.0,91,30,9,30.15,30.01,20,5,24,0.00
2013-12-30,72.6,55.1,41.1,39.0,28.0,17.0,68,38,15,30.27,30.14,4,0,8,0.00
2013-12-31,67.7,52.3,38.2,49.0,35.4,23.0,89,56,25,30.21,30.09,4,0,8,0.00
2014-1-1,70.0,53.3,39.2,51.4,43.8,35.0,90,72,46,30.15,30.05,4,0,7,0.00
2014-1-2,78.9,63.1,45.2,47.0,36.0,27.0,80,39,17,30.11,30.00,7,1,8,0.00